createdAt,value
2018-03-01T00:00:07.856Z,99.90
2018-03-01T00:02:35.459Z,99.90
2018-03-01T00:05:03.311Z,99.90
2018-03-01T00:07:31.592Z,99.90
2018-03-01T00:09:59.089Z,99.90
2018-03-01T00:12:26.620Z,99.90
2018-03-01T00:14:54.127Z,99.90
2018-03-01T00:17:21.635Z,99.90
2018-03-01T00:19:49.138Z,99.90
2018-03-01T00:22:28.444Z,99.90
2018-03-01T00:24:56.285Z,99.90
2018-03-01T00:27:23.774Z,99.90
2018-03-01T00:29:51.289Z,99.90
2018-03-01T00:32:19.875Z,99.90
2018-03-01T00:34:48.120Z,99.90
2018-03-01T00:37:15.629Z,99.90
2018-03-01T00:39:43.124Z,99.90
2018-03-01T00:42:19.971Z,99.90
2018-03-01T00:44:50.061Z,99.90
2018-03-01T00:47:17.656Z,99.90
2018-03-01T00:49:45.228Z,99.90
2018-03-01T00:52:13.504Z,99.90
2018-03-01T00:54:41.129Z,99.90
2018-03-01T00:57:08.653Z,99.90
2018-03-01T00:59:36.675Z,99.90
2018-03-01T01:02:04.169Z,99.90
2018-03-01T01:04:31.714Z,99.90
2018-03-01T01:06:59.497Z,99.90
2018-03-01T01:09:26.995Z,99.90
2018-03-01T01:11:54.475Z,99.90
2018-03-01T01:14:22.331Z,99.90
2018-03-01T01:16:49.847Z,99.90
2018-03-01T01:19:17.355Z,99.90
2018-03-01T01:21:45.291Z,99.90
2018-03-01T01:24:13.559Z,99.90
2018-03-01T01:26:41.818Z,99.90
2018-03-01T01:29:09.783Z,99.90
2018-03-01T01:31:37.299Z,99.90
2018-03-01T01:34:04.862Z,99.90
2018-03-01T01:36:32.363Z,99.90
2018-03-01T01:39:00.080Z,99.90
2018-03-01T01:41:27.589Z,99.90
2018-03-01T01:43:56.239Z,99.90
2018-03-01T01:46:24.164Z,99.90
2018-03-01T01:48:52.044Z,99.90
2018-03-01T01:51:20.408Z,99.90
2018-03-01T01:53:48.676Z,99.90
2018-03-01T01:56:16.959Z,99.90
2018-03-01T01:58:44.864Z,99.90
2018-03-01T02:01:12.353Z,99.90
2018-03-01T02:03:39.836Z,99.90
2018-03-01T02:06:07.691Z,99.90
2018-03-01T02:08:36.007Z,99.90
2018-03-01T02:11:03.563Z,99.90
2018-03-01T02:13:31.392Z,99.90
2018-03-01T02:15:59.664Z,99.90
2018-03-01T02:18:44.351Z,99.90
2018-03-01T02:21:14.616Z,99.90
2018-03-01T02:23:44.959Z,99.90
2018-03-01T02:26:19.275Z,99.90
2018-03-01T02:28:50.061Z,99.90
2018-03-01T02:31:18.951Z,99.90
2018-03-01T02:33:54.479Z,99.90
2018-03-01T02:36:42.955Z,99.90
2018-03-01T02:41:59.552Z,99.90
2018-03-01T02:44:28.007Z,99.90
2018-03-01T02:46:55.896Z,99.90
2018-03-01T02:49:24.307Z,99.90
2018-03-01T02:51:52.134Z,99.90
2018-03-01T02:54:20.417Z,99.90
2018-03-01T02:56:48.720Z,99.90
2018-03-01T02:59:16.550Z,99.90
2018-03-01T03:01:44.833Z,99.90
2018-03-01T03:04:12.364Z,99.90
2018-03-01T03:06:40.643Z,99.90
2018-03-01T03:09:08.158Z,99.90
2018-03-01T03:11:36.439Z,99.90
2018-03-01T03:14:04.285Z,99.90
2018-03-01T03:16:31.767Z,99.90
2018-03-01T03:18:59.287Z,99.90
2018-03-01T03:21:26.800Z,99.90
2018-03-01T03:23:54.310Z,99.90
2018-03-01T03:26:21.803Z,99.90
2018-03-01T03:28:49.303Z,99.90
2018-03-01T03:31:17.552Z,99.90
2018-03-01T03:33:45.448Z,99.90
2018-03-01T03:36:13.693Z,99.90
2018-03-01T03:38:41.211Z,99.90
2018-03-01T03:41:08.825Z,99.90
2018-03-01T03:43:37.428Z,99.90
2018-03-01T03:46:05.699Z,99.90
2018-03-01T03:48:33.935Z,99.90
2018-03-01T03:51:01.439Z,99.90
2018-03-01T03:53:29.683Z,99.90
2018-03-01T03:55:57.256Z,99.90
2018-03-01T03:58:25.838Z,99.90
2018-03-01T04:00:53.318Z,99.90
2018-03-01T04:03:20.800Z,99.90
2018-03-01T04:05:48.664Z,99.90
2018-03-01T04:08:16.184Z,99.90
2018-03-01T04:10:43.703Z,99.90
2018-03-01T04:13:11.211Z,99.90
2018-03-01T04:15:38.799Z,99.90
2018-03-01T04:18:06.284Z,99.90
2018-03-01T04:20:34.080Z,99.90
2018-03-01T04:23:01.633Z,99.90
2018-03-01T04:25:29.880Z,99.90
2018-03-01T04:27:57.689Z,99.90
2018-03-01T04:30:25.247Z,99.90
2018-03-01T04:32:53.483Z,99.90
2018-03-01T04:35:20.989Z,99.90
2018-03-01T04:37:48.472Z,99.90
2018-03-01T04:40:15.969Z,99.90
2018-03-01T04:42:43.998Z,99.90
2018-03-01T04:45:16.531Z,99.90
2018-03-01T04:47:44.102Z,99.90
2018-03-01T04:50:11.967Z,99.90
2018-03-01T04:52:40.239Z,99.90
2018-03-01T04:55:08.101Z,99.90
2018-03-01T04:57:36.380Z,99.90
2018-03-01T05:00:04.656Z,99.90
2018-03-01T05:02:32.211Z,99.90
2018-03-01T05:04:59.750Z,99.90
2018-03-01T05:07:27.247Z,99.90
2018-03-01T05:09:54.928Z,99.90
2018-03-01T05:12:22.420Z,99.90
2018-03-01T05:14:49.921Z,99.90
2018-03-01T05:17:17.784Z,99.90
2018-03-01T05:19:45.295Z,99.90
2018-03-01T05:22:12.784Z,99.90
2018-03-01T05:24:40.647Z,99.90
2018-03-01T05:27:08.916Z,99.90
2018-03-01T05:29:36.407Z,99.90
2018-03-01T05:32:04.362Z,99.90
2018-03-01T05:34:31.864Z,99.90
2018-03-01T05:36:59.361Z,99.90
2018-03-01T05:39:26.976Z,99.90
2018-03-01T05:41:54.463Z,99.90
2018-03-01T05:44:21.989Z,99.90
2018-03-01T05:46:49.900Z,99.90
2018-03-01T05:49:18.185Z,99.90
2018-03-01T05:51:46.428Z,99.90
2018-03-01T05:54:13.992Z,99.90
2018-03-01T05:56:41.496Z,99.90
2018-03-01T05:59:09.016Z,99.90
2018-03-01T06:01:37.738Z,99.90
2018-03-01T06:04:05.422Z,99.90
2018-03-01T06:06:32.944Z,99.90
2018-03-01T06:09:00.464Z,99.90
2018-03-01T06:11:28.026Z,99.90
2018-03-01T06:13:55.541Z,99.90
2018-03-01T06:16:23.424Z,99.90
2018-03-01T06:18:50.953Z,99.90
2018-03-01T06:21:18.453Z,99.90
2018-03-01T06:23:46.276Z,99.90
2018-03-01T06:26:13.800Z,99.90
2018-03-01T06:28:41.300Z,99.90
2018-03-01T06:31:09.935Z,99.90
2018-03-01T06:33:37.445Z,99.90
2018-03-01T06:36:04.946Z,99.90
2018-03-01T06:38:32.868Z,99.90
2018-03-01T06:41:00.370Z,99.90
2018-03-01T06:43:27.864Z,99.90
2018-03-01T06:45:55.385Z,99.90
2018-03-01T06:48:22.976Z,99.90
2018-03-01T06:50:51.236Z,99.90
2018-03-01T06:53:18.764Z,99.90
2018-03-01T06:55:46.268Z,99.90
2018-03-01T06:58:14.526Z,99.90
2018-03-01T07:00:42.333Z,99.90
2018-03-01T07:03:09.815Z,99.90
2018-03-01T07:05:37.328Z,99.90
2018-03-01T07:08:06.324Z,99.90
2018-03-01T07:10:34.074Z,99.90
2018-03-01T07:13:02.973Z,99.90
2018-03-01T07:15:34.115Z,99.90
2018-03-01T07:18:02.379Z,99.90
2018-03-01T07:20:29.919Z,99.90
2018-03-01T07:22:58.632Z,99.90
2018-03-01T07:25:35.064Z,99.90
2018-03-01T07:28:16.645Z,99.90
2018-03-01T07:30:45.679Z,99.90
2018-03-01T07:33:13.972Z,99.90
2018-03-01T07:35:42.247Z,99.90
2018-03-01T07:38:10.528Z,99.90
2018-03-01T07:40:38.445Z,99.90
2018-03-01T07:43:06.225Z,99.90
2018-03-01T07:45:33.738Z,99.90
2018-03-01T07:48:01.313Z,99.90
2018-03-01T07:50:29.139Z,99.90
2018-03-01T07:52:57.449Z,99.90
2018-03-01T07:55:24.992Z,99.90
2018-03-01T07:57:52.791Z,99.90
2018-03-01T08:00:20.283Z,99.90
2018-03-01T08:02:48.623Z,99.90
2018-03-01T08:05:16.444Z,99.90
2018-03-01T08:07:43.990Z,99.90
2018-03-01T08:10:12.270Z,99.90
2018-03-01T08:12:39.784Z,99.90
2018-03-01T08:15:07.323Z,99.90
2018-03-01T08:17:34.842Z,99.90
2018-03-01T08:20:02.353Z,99.90
2018-03-01T08:22:29.848Z,99.90
2018-03-01T08:24:57.339Z,99.90
2018-03-01T08:27:25.118Z,99.90
2018-03-01T08:29:52.605Z,99.90
2018-03-01T08:32:20.087Z,99.90
2018-03-01T08:34:48.686Z,99.90
2018-03-01T08:37:16.985Z,99.90
2018-03-01T08:39:44.487Z,99.90
2018-03-01T08:42:12.374Z,99.90
2018-03-01T08:44:39.899Z,99.90
2018-03-01T08:47:07.539Z,99.90
2018-03-01T08:49:35.078Z,99.90
2018-03-01T08:52:02.591Z,99.90
2018-03-01T08:54:30.088Z,99.90
2018-03-01T08:56:57.624Z,99.60
2018-03-01T08:59:25.881Z,95.20
2018-03-01T09:01:53.396Z,95.20
2018-03-01T09:04:20.960Z,92.00
2018-03-01T09:06:48.437Z,90.00
2018-03-01T09:09:15.908Z,85.40
2018-03-01T09:11:43.549Z,88.80
2018-03-01T09:14:11.084Z,84.80
2018-03-01T09:16:38.558Z,85.10
2018-03-01T09:19:06.095Z,86.90
2018-03-01T09:21:34.464Z,89.50
2018-03-01T09:24:02.011Z,89.30
2018-03-01T09:26:29.987Z,88.60
2018-03-01T09:28:57.643Z,86.40
2018-03-01T09:31:25.706Z,79.80
2018-03-01T09:33:53.285Z,80.30
2018-03-01T09:36:20.768Z,83.30
2018-03-01T09:38:48.375Z,83.30
2018-03-01T09:41:16.190Z,83.60
2018-03-01T09:43:44.524Z,84.20
2018-03-01T09:46:12.782Z,86.80
2018-03-01T09:48:41.085Z,86.90
2018-03-01T09:51:09.348Z,86.90
2018-03-01T09:53:36.919Z,86.90
2018-03-01T09:56:04.426Z,88.70
2018-03-01T09:58:32.056Z,91.00
2018-03-01T10:00:59.540Z,87.00
2018-03-01T10:03:27.052Z,86.00
2018-03-01T10:05:55.352Z,85.10
2018-03-01T10:08:22.846Z,85.10
2018-03-01T10:10:50.400Z,82.40
2018-03-01T10:13:17.896Z,78.60
2018-03-01T10:15:45.360Z,79.40
2018-03-01T10:18:13.048Z,78.40
2018-03-01T10:20:40.561Z,80.60
2018-03-01T10:23:08.044Z,80.20
2018-03-01T10:25:35.940Z,82.10
2018-03-01T10:28:03.457Z,82.80
2018-03-01T10:30:31.719Z,80.40
2018-03-01T10:32:59.509Z,84.00
2018-03-01T10:35:27.777Z,85.00
2018-03-01T10:37:56.131Z,84.60
2018-03-01T10:40:23.698Z,84.70
2018-03-01T10:42:51.216Z,85.40
2018-03-01T10:45:18.720Z,86.80
2018-03-01T10:47:47.000Z,85.60
2018-03-01T10:50:15.301Z,85.00
2018-03-01T10:52:42.801Z,84.80
2018-03-01T10:55:10.367Z,84.90
2018-03-01T10:57:37.927Z,85.50
2018-03-01T11:00:05.412Z,86.50
2018-03-01T11:02:33.997Z,86.30
2018-03-01T11:05:01.504Z,86.30
2018-03-01T11:07:29.008Z,85.50
2018-03-01T11:09:57.280Z,85.50
2018-03-01T11:12:24.810Z,85.50
2018-03-01T11:14:52.356Z,84.30
2018-03-01T11:17:19.904Z,84.70
2018-03-01T11:19:47.386Z,83.10
2018-03-01T11:22:14.871Z,84.10
2018-03-01T11:24:42.356Z,84.30
2018-03-01T11:27:09.825Z,86.60
2018-03-01T11:29:37.335Z,84.80
2018-03-01T11:32:04.855Z,84.10
2018-03-01T11:34:32.362Z,82.10
2018-03-01T11:37:00.622Z,85.30
2018-03-01T11:39:28.191Z,85.10
2018-03-01T11:41:56.502Z,81.40
2018-03-01T11:44:23.990Z,81.40
2018-03-01T11:46:51.468Z,81.60
2018-03-01T11:49:19.010Z,80.50
2018-03-01T11:51:46.527Z,80.40
2018-03-01T11:54:14.044Z,80.60
2018-03-01T11:56:41.527Z,79.30
2018-03-01T11:59:09.768Z,81.30
2018-03-01T12:01:37.265Z,80.60
2018-03-01T12:04:05.564Z,78.30
2018-03-01T12:06:33.828Z,78.60
2018-03-01T12:09:02.108Z,77.90
2018-03-01T12:11:29.607Z,78.70
2018-03-01T12:13:57.532Z,76.80
2018-03-01T12:16:25.469Z,76.00
2018-03-01T12:18:52.968Z,76.60
2018-03-01T12:21:20.535Z,76.10
2018-03-01T12:23:48.023Z,74.50
2018-03-01T12:26:15.502Z,74.10
2018-03-01T12:28:43.012Z,74.80
2018-03-01T12:31:10.518Z,76.30
2018-03-01T12:33:38.003Z,76.50
2018-03-01T12:36:05.588Z,73.20
2018-03-01T12:38:33.451Z,72.40
2018-03-01T12:41:00.944Z,72.00
2018-03-01T12:43:28.455Z,72.80
2018-03-01T12:45:55.932Z,72.60
2018-03-01T12:48:23.392Z,70.40
2018-03-01T12:50:50.873Z,69.90
2018-03-01T12:53:18.689Z,71.60
2018-03-01T12:55:46.202Z,70.60
2018-03-01T12:58:13.713Z,68.50
2018-03-01T13:00:41.226Z,68.30
2018-03-01T13:03:08.738Z,70.00
2018-03-01T13:05:36.238Z,69.20
2018-03-01T13:08:03.729Z,69.10
2018-03-01T13:10:43.015Z,68.50
2018-03-01T13:13:10.511Z,69.80
2018-03-01T13:15:38.769Z,70.90
2018-03-01T13:18:06.242Z,70.80
2018-03-01T13:20:35.028Z,70.10
2018-03-01T13:23:03.276Z,70.70
2018-03-01T13:25:31.575Z,70.50
2018-03-01T13:27:59.863Z,69.30
2018-03-01T13:30:28.173Z,69.10
2018-03-01T13:32:55.719Z,69.10
2018-03-01T13:48:56.692Z,74.20
2018-03-01T13:51:24.166Z,70.00
2018-03-01T13:53:51.701Z,69.60
2018-03-01T13:56:19.183Z,70.70
2018-03-01T13:58:47.440Z,70.40
2018-03-01T14:01:14.920Z,70.40
2018-03-01T14:03:43.201Z,70.50
2018-03-01T14:06:22.593Z,70.50
2018-03-01T14:08:53.966Z,70.40
2018-03-01T14:11:21.582Z,70.80
2018-03-01T14:13:49.054Z,70.70
2018-03-01T14:16:16.528Z,71.30
2018-03-01T14:32:16.173Z,75.20
2018-03-01T14:34:43.840Z,75.30
2018-03-01T14:37:11.370Z,76.90
2018-03-01T14:39:39.964Z,77.50
2018-03-01T14:42:07.508Z,77.50
2018-03-01T14:44:35.858Z,78.20
2018-03-01T14:47:03.377Z,78.20
2018-03-01T14:49:30.855Z,78.30
2018-03-01T14:51:58.461Z,78.80
2018-03-01T14:54:26.780Z,77.70
2018-03-01T14:56:54.337Z,77.70
2018-03-01T14:59:21.903Z,77.50
2018-03-01T15:01:49.380Z,78.50
2018-03-01T15:04:16.859Z,78.30
2018-03-01T15:06:44.408Z,78.10
2018-03-01T15:09:12.064Z,78.40
2018-03-01T15:11:39.581Z,79.50
2018-03-01T15:14:07.071Z,80.90
2018-03-01T15:16:34.581Z,79.20
2018-03-01T15:19:02.885Z,79.50
2018-03-01T15:21:30.384Z,79.50
2018-03-01T15:23:58.352Z,79.20
2018-03-01T15:26:27.348Z,81.50
2018-03-01T15:28:54.910Z,81.40
2018-03-01T15:31:22.464Z,82.00
2018-03-01T15:33:49.932Z,80.50
2018-03-01T15:36:17.439Z,80.40
2018-03-01T15:38:44.971Z,80.80
2018-03-01T15:41:12.556Z,80.40
2018-03-01T15:43:40.033Z,79.90
2018-03-01T15:46:07.555Z,82.40
2018-03-01T15:48:35.082Z,81.50
2018-03-01T15:51:02.607Z,81.70
2018-03-01T15:53:30.456Z,82.30
2018-03-01T15:55:58.156Z,82.50
2018-03-01T15:58:25.670Z,83.40
2018-03-01T16:00:54.089Z,84.50
2018-03-01T16:03:21.540Z,85.10
2018-03-01T16:05:49.040Z,86.30
2018-03-01T16:08:18.138Z,84.20
2018-03-01T16:10:46.689Z,84.80
2018-03-01T16:13:14.933Z,84.70
2018-03-01T16:15:42.544Z,84.30
2018-03-01T16:18:10.524Z,85.20
2018-03-01T16:20:38.762Z,86.50
2018-03-01T16:23:06.444Z,85.70
2018-03-01T16:25:34.038Z,86.20
2018-03-01T16:28:01.724Z,86.70
2018-03-01T16:30:29.540Z,86.40
2018-03-01T16:32:57.831Z,88.30
2018-03-01T16:35:25.331Z,89.10
2018-03-01T16:37:52.988Z,87.80
2018-03-01T16:40:20.495Z,88.60
2018-03-01T16:42:48.788Z,89.20
2018-03-01T16:45:16.301Z,89.10
2018-03-01T16:47:43.804Z,88.80
2018-03-01T16:50:11.378Z,89.90
2018-03-01T16:52:39.309Z,90.30
2018-03-01T16:55:07.732Z,90.20
2018-03-01T16:57:35.392Z,90.20
2018-03-01T17:00:02.917Z,90.60
2018-03-01T17:02:31.176Z,90.90
2018-03-01T17:04:58.764Z,91.00
2018-03-01T17:07:26.331Z,91.40
2018-03-01T17:09:53.829Z,91.70
2018-03-01T17:12:21.316Z,91.80
2018-03-01T17:14:49.571Z,91.90
2018-03-01T17:17:17.044Z,91.90
2018-03-01T17:19:45.327Z,92.00
2018-03-01T17:22:13.652Z,92.50
2018-03-01T17:24:41.175Z,92.50
2018-03-01T17:27:08.771Z,92.50
2018-03-01T17:29:36.321Z,93.30
2018-03-01T17:32:03.844Z,93.50
2018-03-01T17:34:32.088Z,94.00
2018-03-01T17:36:59.773Z,94.00
2018-03-01T17:39:28.111Z,94.00
2018-03-01T17:41:55.574Z,93.90
2018-03-01T17:44:23.540Z,94.30
2018-03-01T17:46:51.060Z,94.80
2018-03-01T17:49:18.544Z,94.90
2018-03-01T17:51:46.472Z,95.20
2018-03-01T17:54:14.352Z,95.30
2018-03-01T17:56:41.822Z,95.00
2018-03-01T17:59:09.585Z,95.30
2018-03-01T18:01:37.052Z,95.50
2018-03-01T18:04:05.235Z,95.50
2018-03-01T18:06:32.774Z,95.80
2018-03-01T18:09:00.412Z,96.00
2018-03-01T18:11:27.916Z,96.20
2018-03-01T18:13:55.459Z,95.90
2018-03-01T18:16:22.984Z,96.10
2018-03-01T18:18:51.233Z,97.70
2018-03-01T18:21:19.242Z,97.60
2018-03-01T18:23:46.724Z,98.10
2018-03-01T18:26:14.213Z,98.60
2018-03-01T18:28:42.206Z,98.30
2018-03-01T18:31:09.683Z,98.50
2018-03-01T18:33:37.216Z,98.20
2018-03-01T18:36:05.562Z,98.80
2018-03-01T18:38:33.068Z,98.80
2018-03-01T18:41:00.542Z,98.60
2018-03-01T18:43:28.127Z,98.70
2018-03-01T18:45:56.463Z,99.90
2018-03-01T18:48:24.776Z,99.90
2018-03-01T18:50:52.581Z,99.60
2018-03-01T18:53:20.065Z,99.90
2018-03-01T18:55:47.684Z,99.30
2018-03-01T18:58:15.594Z,99.50
2018-03-01T19:00:43.096Z,98.70
2018-03-01T19:03:10.585Z,99.40
2018-03-01T19:05:38.380Z,99.90
2018-03-01T19:08:05.879Z,99.90
2018-03-01T19:10:33.376Z,99.90
2018-03-01T19:13:02.162Z,99.90
2018-03-01T19:15:30.448Z,99.90
2018-03-01T19:17:57.940Z,99.90
2018-03-01T19:20:25.565Z,99.90
2018-03-01T19:22:53.053Z,99.90
2018-03-01T19:25:21.355Z,99.90
2018-03-01T19:27:48.935Z,99.90
2018-03-01T19:30:16.478Z,99.90
2018-03-01T19:32:44.007Z,99.90
2018-03-01T19:35:11.828Z,99.90
2018-03-01T19:37:39.381Z,99.90
2018-03-01T19:40:07.760Z,99.90
2018-03-01T19:42:35.294Z,99.90
2018-03-01T19:45:02.816Z,99.90
2018-03-01T19:47:30.307Z,99.90
2018-03-01T19:49:57.904Z,99.90
2018-03-01T19:52:26.157Z,99.90
2018-03-01T19:54:54.444Z,99.90
2018-03-01T19:57:21.927Z,99.90
2018-03-01T19:59:49.511Z,99.90
2018-03-01T20:02:17.028Z,99.90
2018-03-01T20:04:44.954Z,99.90
2018-03-01T20:07:12.491Z,99.90
2018-03-01T20:09:39.991Z,99.90
2018-03-01T20:12:07.513Z,99.90
2018-03-01T20:14:35.177Z,99.90
2018-03-01T20:17:02.656Z,99.90
2018-03-01T20:19:30.154Z,99.90
2018-03-01T20:21:57.647Z,99.90
2018-03-01T20:24:25.145Z,99.90
2018-03-01T20:26:53.850Z,99.90
2018-03-01T20:29:22.121Z,99.90
2018-03-01T20:31:50.396Z,99.90
2018-03-01T20:34:19.084Z,99.90
2018-03-01T20:36:46.588Z,99.90
2018-03-01T20:39:14.156Z,99.90
2018-03-01T20:41:41.994Z,99.90
2018-03-01T20:44:09.476Z,99.90
2018-03-01T20:46:36.997Z,99.90
2018-03-01T20:49:05.673Z,99.90
2018-03-01T20:51:33.225Z,99.90
2018-03-01T20:54:00.836Z,99.90
2018-03-01T20:56:28.325Z,99.90
2018-03-01T20:58:55.808Z,99.90
2018-03-01T21:01:23.374Z,99.90
2018-03-01T21:03:50.957Z,99.90
2018-03-01T21:06:18.473Z,99.90
2018-03-01T21:08:46.903Z,99.90
2018-03-01T21:11:14.438Z,99.90
2018-03-01T21:13:42.687Z,99.90
2018-03-01T21:16:10.949Z,99.90
2018-03-01T21:18:38.463Z,99.90
2018-03-01T21:21:05.972Z,99.90
2018-03-01T21:23:34.215Z,99.90
2018-03-01T21:26:01.767Z,99.90
2018-03-01T21:28:29.308Z,99.90
2018-03-01T21:30:57.588Z,99.90
2018-03-01T21:33:25.142Z,99.90
2018-03-01T21:35:52.696Z,99.90
2018-03-01T21:38:20.204Z,99.90
2018-03-01T21:40:47.704Z,99.90
2018-03-01T21:43:15.208Z,99.90
2018-03-01T21:45:42.698Z,99.90
2018-03-01T21:48:10.950Z,99.90
2018-03-01T21:50:38.572Z,99.90
2018-03-01T21:53:06.087Z,99.90
2018-03-01T21:55:33.959Z,99.90
2018-03-01T21:58:02.194Z,99.90
2018-03-01T22:00:29.698Z,99.90
2018-03-01T22:02:57.609Z,99.90
2018-03-01T22:05:25.169Z,99.90
2018-03-01T22:07:52.641Z,99.90
2018-03-01T22:10:20.563Z,99.90
2018-03-01T22:12:48.053Z,99.90
2018-03-01T22:15:17.154Z,99.90
2018-03-01T22:17:45.088Z,99.90
2018-03-01T22:20:12.661Z,99.90
2018-03-01T22:22:40.183Z,99.90
2018-03-01T22:25:08.766Z,99.90
2018-03-01T22:27:37.015Z,99.90
2018-03-01T22:30:04.640Z,99.90
2018-03-01T22:32:32.464Z,99.90
2018-03-01T22:35:00.715Z,99.90
2018-03-01T22:37:28.212Z,99.90
2018-03-01T22:39:55.726Z,99.90
2018-03-01T22:42:23.247Z,99.90
2018-03-01T22:44:50.750Z,99.90
2018-03-01T22:47:19.316Z,99.90
2018-03-01T22:49:46.829Z,99.90
2018-03-01T22:52:14.328Z,99.90
2018-03-01T22:54:42.132Z,99.90
2018-03-01T22:57:10.376Z,99.90
2018-03-01T22:59:37.851Z,99.90
2018-03-01T23:02:05.379Z,99.90
2018-03-01T23:04:35.356Z,99.90
2018-03-01T23:07:04.321Z,99.90
2018-03-01T23:09:32.140Z,99.90
2018-03-01T23:11:59.689Z,99.90
2018-03-01T23:14:27.176Z,99.90
2018-03-01T23:16:55.149Z,99.90
2018-03-01T23:19:22.636Z,99.90
2018-03-01T23:21:50.884Z,99.90
2018-03-01T23:24:18.420Z,99.90
2018-03-01T23:26:45.910Z,99.90
2018-03-01T23:29:13.424Z,99.90
2018-03-01T23:31:41.273Z,99.90
2018-03-01T23:34:08.841Z,99.90
2018-03-01T23:36:36.387Z,99.90
2018-03-01T23:39:04.769Z,99.90
2018-03-01T23:41:32.304Z,99.90
2018-03-01T23:43:59.843Z,99.90
2018-03-01T23:46:27.627Z,99.90
2018-03-01T23:48:55.102Z,99.90
2018-03-01T23:51:22.608Z,99.90
2018-03-01T23:53:50.425Z,99.90
2018-03-01T23:56:18.704Z,99.90
2018-03-01T23:58:46.995Z,99.90
